Time;durP1;ratioP1;P1;durP2;ratioP2;P2;SDS_P1;SDS_P2;PMS_P1;PMS_P2;Temp;Humidity;BMP_temperature;BMP_pressure;BME280_temperature;BME280_humidity;BME280_pressure;Samples;Min_cycle;Max_cycle;Signal;HPM_P1;HPM_P2
2020/12/05 00:00:12;;;;;;;8.70;2.50;;;;;;;;;;4377527;32;20085;-77
2020/12/05 00:02:40;;;;;;;4.95;2.25;;;;;;;;;;4375553;32;20109;-76
2020/12/05 00:05:09;;;;;;;10.70;2.60;;;;;;;;;;4381629;32;20468;-76
2020/12/05 00:07:39;;;;;;;9.73;2.45;;;;;;;;;;4381557;32;20127;-76
2020/12/05 00:10:08;;;;;;;4.85;2.70;;;;;;;;;;4379631;32;20114;-78
2020/12/05 00:12:37;;;;;;;7.28;2.55;;;;;;;;;;4381323;32;20495;-77
2020/12/05 00:15:05;;;;;;;5.60;2.92;;;;;;;;;;4379784;32;20139;-76
2020/12/05 00:17:34;;;;;;;12.13;3.58;;;;;;;;;;4380297;32;20066;-77
2020/12/05 00:20:03;;;;;;;2.65;2.40;;;;;;;;;;4378460;32;20110;-76
2020/12/05 00:22:31;;;;;;;2.87;1.42;;;;;;;;;;4378022;32;20091;-77
2020/12/05 00:25:00;;;;;;;6.22;2.60;;;;;;;;;;4382586;32;20492;-78
2020/12/05 00:27:28;;;;;;;4.55;2.33;;;;;;;;;;4374471;32;20069;-76
2020/12/05 00:29:57;;;;;;;2.50;0.73;;;;;;;;;;4379338;32;20055;-77
2020/12/05 00:32:28;;;;;;;18.87;8.77;;;;;;;;;;4380208;32;20073;-76
2020/12/05 00:34:56;;;;;;;3.97;3.58;;;;;;;;;;4378621;32;20125;-78
2020/12/05 00:37:28;;;;;;;8.27;1.48;;;;;;;;;;4377666;32;20035;-77
2020/12/05 00:39:57;;;;;;;5.32;2.87;;;;;;;;;;4377883;32;20412;-78
2020/12/05 00:42:26;;;;;;;2.33;1.10;;;;;;;;;;4375081;32;20051;-77
2020/12/05 00:44:56;;;;;;;3.00;1.75;;;;;;;;;;4379348;32;20050;-76
2020/12/05 00:47:28;;;;;;;4.82;3.50;;;;;;;;;;4382455;32;20039;-76
2020/12/05 00:49:58;;;;;;;10.25;5.35;;;;;;;;;;4379810;32;20074;-76
2020/12/05 00:52:28;;;;;;;6.60;3.92;;;;;;;;;;4390780;32;20077;-77
2020/12/05 00:54:58;;;;;;;8.68;4.25;;;;;;;;;;4381559;32;20099;-76
2020/12/05 00:57:26;;;;;;;8.38;5.25;;;;;;;;;;4379349;32;20364;-76
2020/12/05 00:59:55;;;;;;;11.30;6.87;;;;;;;;;;4376612;32;20268;-78
2020/12/05 01:02:25;;;;;;;7.60;3.87;;;;;;;;;;4379604;32;20162;-77
2020/12/05 01:04:54;;;;;;;5.68;3.90;;;;;;;;;;4376548;32;20106;-77
2020/12/05 01:07:25;;;;;;;6.25;4.72;;;;;;;;;;4381149;32;20106;-78
2020/12/05 01:09:54;;;;;;;4.35;2.58;;;;;;;;;;4374120;32;20043;-78
2020/12/05 01:12:24;;;;;;;5.62;4.40;;;;;;;;;;4376166;32;20078;-77
2020/12/05 01:14:52;;;;;;;6.82;4.18;;;;;;;;;;4378230;32;20128;-76
2020/12/05 01:17:25;;;;;;;14.25;4.37;;;;;;;;;;4376649;32;20055;-78
2020/12/05 01:19:56;;;;;;;10.30;6.55;;;;;;;;;;4375563;32;20133;-77
2020/12/05 01:22:24;;;;;;;5.90;4.40;;;;;;;;;;4374949;32;20059;-78
2020/12/05 01:24:53;;;;;;;7.65;1.20;;;;;;;;;;4376536;32;20430;-77
2020/12/05 01:27:21;;;;;;;13.93;1.37;;;;;;;;;;4380425;32;20072;-76
2020/12/05 01:29:50;;;;;;;9.60;2.35;;;;;;;;;;4379298;32;20141;-76
2020/12/05 01:32:19;;;;;;;12.27;1.92;;;;;;;;;;4372398;32;20121;-76
2020/12/05 01:34:48;;;;;;;7.25;1.80;;;;;;;;;;4378714;32;20271;-76
2020/12/05 01:37:17;;;;;;;13.95;3.45;;;;;;;;;;4375075;32;20079;-78
2020/12/05 01:39:45;;;;;;;14.10;3.58;;;;;;;;;;4375319;32;20068;-78
2020/12/05 01:42:13;;;;;;;10.57;3.40;;;;;;;;;;4380437;32;20081;-76
2020/12/05 01:44:42;;;;;;;6.18;5.05;;;;;;;;;;4388805;32;20159;-76
2020/12/05 01:47:11;;;;;;;6.65;2.30;;;;;;;;;;4380627;32;20389;-76
2020/12/05 01:49:40;;;;;;;6.50;3.00;;;;;;;;;;4382955;32;20072;-76
2020/12/05 01:52:09;;;;;;;6.47;4.65;;;;;;;;;;4378429;32;20058;-77
2020/12/05 01:54:37;;;;;;;8.52;4.82;;;;;;;;;;4380780;32;20145;-76
2020/12/05 01:57:05;;;;;;;3.50;0.90;;;;;;;;;;4383446;32;20048;-77
2020/12/05 01:59:34;;;;;;;5.72;1.75;;;;;;;;;;4384960;32;20107;-77
2020/12/05 02:02:04;;;;;;;6.05;3.17;;;;;;;;;;4380909;32;20129;-78
2020/12/05 02:04:44;;;;;;;8.43;5.25;;;;;;;;;;4379015;32;20106;-75
2020/12/05 02:07:25;;;;;;;17.30;5.20;;;;;;;;;;4384718;32;20063;-77
2020/12/05 02:09:55;;;;;;;7.10;3.60;;;;;;;;;;4382914;32;20531;-77
2020/12/05 02:12:32;;;;;;;10.00;3.70;;;;;;;;;;4377656;32;20077;-78
2020/12/05 02:15:08;;;;;;;4.60;3.22;;;;;;;;;;4379698;32;20116;-78
2020/12/05 02:17:40;;;;;;;10.18;4.32;;;;;;;;;;4377687;32;20442;-78
2020/12/05 02:20:09;;;;;;;3.58;3.28;;;;;;;;;;4380196;32;20137;-77
2020/12/05 02:22:43;;;;;;;5.82;4.15;;;;;;;;;;4381282;32;20418;-78
2020/12/05 02:25:13;;;;;;;7.07;4.10;;;;;;;;;;4382573;32;20089;-77
2020/12/05 02:27:42;;;;;;;17.30;4.78;;;;;;;;;;4378793;32;20418;-76
2020/12/05 02:30:12;;;;;;;7.95;2.58;;;;;;;;;;4382232;32;20449;-76
2020/12/05 02:32:40;;;;;;;12.77;2.72;;;;;;;;;;4384375;32;20575;-76
2020/12/05 02:35:09;;;;;;;8.18;4.93;;;;;;;;;;4379212;32;20104;-78
2020/12/05 02:37:45;;;;;;;2.67;0.90;;;;;;;;;;4385185;32;20073;-78
2020/12/05 02:40:13;;;;;;;4.90;4.45;;;;;;;;;;4383231;32;20120;-77
2020/12/05 02:42:42;;;;;;;6.45;5.10;;;;;;;;;;4384377;32;20051;-76
2020/12/05 02:45:11;;;;;;;5.50;4.70;;;;;;;;;;4379515;32;20611;-78
2020/12/05 02:47:39;;;;;;;15.55;5.25;;;;;;;;;;4386112;32;20127;-77
2020/12/05 02:50:08;;;;;;;6.18;1.42;;;;;;;;;;4378250;32;20048;-77
2020/12/05 02:52:36;;;;;;;10.63;1.55;;;;;;;;;;4387227;32;20074;-77
2020/12/05 02:55:04;;;;;;;7.97;1.27;;;;;;;;;;4377189;32;21489;-76
2020/12/05 02:57:33;;;;;;;13.00;5.15;;;;;;;;;;4371590;32;20173;-76
2020/12/05 03:00:02;;;;;;;12.37;6.43;;;;;;;;;;4380682;32;20091;-76
2020/12/05 03:02:30;;;;;;;6.25;2.87;;;;;;;;;;4381533;32;20065;-76
2020/12/05 03:04:59;;;;;;;10.80;1.73;;;;;;;;;;4376572;32;20072;-77
2020/12/05 03:07:27;;;;;;;6.00;0.98;;;;;;;;;;4373870;32;20043;-77
2020/12/05 03:09:56;;;;;;;7.37;1.30;;;;;;;;;;4381885;32;20107;-77
2020/12/05 03:12:24;;;;;;;9.57;1.70;;;;;;;;;;4396203;27;20242;-94
2020/12/05 03:14:53;;;;;;;7.47;1.05;;;;;;;;;;4347784;32;20063;-93
2020/12/05 03:17:21;;;;;;;7.28;1.67;;;;;;;;;;4373129;32;20057;-94
2020/12/05 03:19:50;;;;;;;5.53;1.20;;;;;;;;;;4346313;32;20099;-92
2020/12/05 03:22:18;;;;;;;7.80;1.50;;;;;;;;;;4375355;32;20070;-92
2020/12/05 03:24:47;;;;;;;13.07;1.35;;;;;;;;;;4349301;32;20109;-93
2020/12/05 03:27:16;;;;;;;6.55;5.07;;;;;;;;;;4341002;32;20646;-96
2020/12/05 03:29:44;;;;;;;2.78;1.00;;;;;;;;;;4339649;32;20055;-95
2020/12/05 03:32:16;;;;;;;23.55;21.83;;;;;;;;;;4358517;32;20488;-96
2020/12/05 03:34:45;;;;;;;13.05;11.20;;;;;;;;;;4344485;32;20110;-95
2020/12/05 03:37:13;;;;;;;2.47;0.88;;;;;;;;;;4357291;32;20077;-96
2020/12/05 03:39:41;;;;;;;2.78;0.57;;;;;;;;;;4367836;32;20180;-96
2020/12/05 03:42:10;;;;;;;2.47;0.80;;;;;;;;;;4359048;32;20060;-96
2020/12/05 03:44:39;;;;;;;4.47;1.17;;;;;;;;;;4345240;32;20488;-95
2020/12/05 03:47:07;;;;;;;3.67;0.90;;;;;;;;;;4351784;32;20111;-96
2020/12/05 03:49:36;;;;;;;3.92;0.57;;;;;;;;;;4348674;32;20091;-96
2020/12/05 03:52:05;;;;;;;9.13;8.23;;;;;;;;;;4345324;32;21529;-96
2020/12/05 03:54:33;;;;;;;3.15;0.70;;;;;;;;;;4349781;32;20482;-96
2020/12/05 03:57:02;;;;;;;2.87;0.60;;;;;;;;;;4343737;32;20153;-95
2020/12/05 03:59:31;;;;;;;2.10;0.77;;;;;;;;;;4344242;32;20070;-96
2020/12/05 04:02:00;;;;;;;5.22;1.12;;;;;;;;;;4356330;32;20852;-96
2020/12/05 04:04:29;;;;;;;7.12;1.37;;;;;;;;;;4350138;32;20051;-94
2020/12/05 04:06:58;;;;;;;5.65;1.15;;;;;;;;;;4346747;32;20101;-94
2020/12/05 04:09:26;;;;;;;6.85;1.15;;;;;;;;;;4358832;32;20065;-95
2020/12/05 04:11:55;;;;;;;9.00;1.75;;;;;;;;;;4347575;32;20373;-95
2020/12/05 04:14:24;;;;;;;8.50;1.62;;;;;;;;;;4349034;32;20943;-95
2020/12/05 04:16:52;;;;;;;6.07;1.00;;;;;;;;;;4358300;32;20115;-95
2020/12/05 04:19:21;;;;;;;16.55;15.30;;;;;;;;;;4359723;32;20060;-96
2020/12/05 04:21:49;;;;;;;2.80;1.10;;;;;;;;;;4361738;32;20055;-95
2020/12/05 04:24:17;;;;;;;5.18;0.70;;;;;;;;;;4348972;32;20073;-96
2020/12/05 04:26:46;;;;;;;10.52;1.42;;;;;;;;;;4361589;32;20095;-96
2020/12/05 04:29:15;;;;;;;3.47;0.70;;;;;;;;;;4343212;32;20087;-95
2020/12/05 04:31:44;;;;;;;2.58;0.68;;;;;;;;;;4360937;32;20125;-96
2020/12/05 04:34:13;;;;;;;4.00;0.50;;;;;;;;;;4345587;32;20051;-95
2020/12/05 04:36:43;;;;;;;5.57;1.23;;;;;;;;;;4355146;32;20115;-94
2020/12/05 04:39:11;;;;;;;1.65;0.80;;;;;;;;;;4344762;32;20944;-93
2020/12/05 04:41:42;;;;;;;6.50;1.48;;;;;;;;;;4347355;32;20087;-95
2020/12/05 04:44:10;;;;;;;8.02;0.80;;;;;;;;;;4343749;32;20107;-93
2020/12/05 04:46:39;;;;;;;7.03;1.85;;;;;;;;;;4354739;32;20401;-96
2020/12/05 04:49:08;;;;;;;6.95;1.42;;;;;;;;;;4344071;32;20102;-95
2020/12/05 04:51:37;;;;;;;6.75;1.10;;;;;;;;;;4345301;32;20107;-94
2020/12/05 04:54:06;;;;;;;9.10;1.77;;;;;;;;;;4345398;32;20113;-94
2020/12/05 04:56:38;;;;;;;4.05;0.90;;;;;;;;;;4349341;32;20079;-94
2020/12/05 04:59:09;;;;;;;4.80;0.60;;;;;;;;;;4353038;32;20110;-94
2020/12/05 05:01:40;;;;;;;6.45;0.75;;;;;;;;;;4354796;32;20118;-94
2020/12/05 05:04:17;;;;;;;4.28;1.15;;;;;;;;;;4359121;32;20059;-95
2020/12/05 05:06:45;;;;;;;3.90;0.73;;;;;;;;;;4347905;32;20150;-96
2020/12/05 05:09:13;;;;;;;5.62;0.90;;;;;;;;;;4344955;32;20082;-96
2020/12/05 05:11:54;;;;;;;9.57;1.35;;;;;;;;;;4337119;32;20044;-93
2020/12/05 05:14:35;;;;;;;2.87;0.68;;;;;;;;;;4359394;32;20420;-94
2020/12/05 05:17:05;;;;;;;4.95;1.23;;;;;;;;;;4373114;32;20058;-94
2020/12/05 05:19:36;;;;;;;7.10;1.67;;;;;;;;;;4355530;32;20101;-94
2020/12/05 05:22:06;;;;;;;17.83;16.33;;;;;;;;;;4347770;32;20125;-94
2020/12/05 05:24:34;;;;;;;4.43;1.23;;;;;;;;;;4348676;32;20114;-96
2020/12/05 05:27:07;;;;;;;2.50;0.80;;;;;;;;;;4348918;32;20071;-95
2020/12/05 05:29:39;;;;;;;5.30;1.35;;;;;;;;;;4356930;33;20099;-95
2020/12/05 05:32:16;;;;;;;14.85;12.73;;;;;;;;;;4353598;32;20097;-94
2020/12/05 05:34:46;;;;;;;6.90;3.70;;;;;;;;;;4348572;32;20079;-94
2020/12/05 05:37:15;;;;;;;10.85;1.55;;;;;;;;;;4352557;32;20059;-95
2020/12/05 05:39:46;;;;;;;7.43;2.30;;;;;;;;;;4356176;32;20051;-93
2020/12/05 05:42:34;;;;;;;4.20;2.53;;;;;;;;;;4359941;32;20148;-94
2020/12/05 05:45:19;;;;;;;4.20;1.58;;;;;;;;;;4360329;32;20555;-94
2020/12/05 05:47:47;;;;;;;;;;;;;;;;;;4348733;32;20063;-94
2020/12/05 05:50:34;;;;;;;7.57;1.83;;;;;;;;;;4361805;32;19994;-95
2020/12/05 05:53:03;;;;;;;36.08;33.78;;;;;;;;;;4346511;32;20056;-93
2020/12/05 05:55:44;;;;;;;9.07;3.97;;;;;;;;;;4358075;32;20073;-94
2020/12/05 05:58:13;;;;;;;13.85;12.82;;;;;;;;;;4346484;32;20187;-94
2020/12/05 06:00:43;;;;;;;9.80;1.83;;;;;;;;;;4360284;32;20074;-95
2020/12/05 06:03:16;;;;;;;3.90;0.98;;;;;;;;;;4346626;32;20457;-93
2020/12/05 06:05:45;;;;;;;8.43;1.20;;;;;;;;;;4372111;32;20060;-95
2020/12/05 06:08:16;;;;;;;4.28;0.90;;;;;;;;;;4370860;32;20059;-96
2020/12/05 06:10:47;;;;;;;4.18;1.02;;;;;;;;;;4347406;33;20047;-96
2020/12/05 06:13:18;;;;;;;4.70;4.25;;;;;;;;;;4346984;33;20109;-95
2020/12/05 06:15:47;;;;;;;4.18;2.20;;;;;;;;;;4340118;33;20055;-96
2020/12/05 06:18:16;;;;;;;4.40;3.58;;;;;;;;;;4342541;33;20079;-96
2020/12/05 06:20:45;;;;;;;29.12;27.05;;;;;;;;;;4373131;32;20059;-95
2020/12/05 06:23:37;;;;;;;8.68;8.13;;;;;;;;;;4347579;32;20396;-94
2020/12/05 06:26:12;;;;;;;9.13;1.25;;;;;;;;;;4348002;33;20083;-93
2020/12/05 06:28:44;;;;;;;3.75;0.73;;;;;;;;;;4359083;32;20129;-93
2020/12/05 06:31:40;;;;;;;4.03;0.73;;;;;;;;;;4351619;33;20052;-93
2020/12/05 06:34:09;;;;;;;3.97;1.30;;;;;;;;;;4353107;32;20487;-93
2020/12/05 06:36:38;;;;;;;9.07;0.95;;;;;;;;;;4359831;32;20115;-95
2020/12/05 06:39:06;;;;;;;5.95;1.10;;;;;;;;;;4340126;33;20112;-94
2020/12/05 06:41:36;;;;;;;4.22;1.15;;;;;;;;;;4364183;32;20487;-92
2020/12/05 06:44:21;;;;;;;4.18;1.10;;;;;;;;;;4356829;32;20114;-92
2020/12/05 06:46:59;;;;;;;6.80;1.08;;;;;;;;;;4356528;33;20071;-94
2020/12/05 06:49:37;;;;;;;3.53;1.02;;;;;;;;;;4357066;33;20085;-93
2020/12/05 06:52:25;;;;;;;6.15;0.90;;;;;;;;;;4344347;33;20071;-92
2020/12/05 06:55:00;;;;;;;3.40;1.08;;;;;;;;;;4348331;32;20099;-95
2020/12/05 06:57:29;;;;;;;10.25;1.45;;;;;;;;;;4357314;32;20089;-94
2020/12/05 07:00:17;;;;;;;6.37;1.52;;;;;;;;;;4343696;33;20067;-95
2020/12/05 07:02:55;;;;;;;5.62;1.15;;;;;;;;;;4367326;32;20426;-95
2020/12/05 07:05:25;;;;;;;5.05;1.75;;;;;;;;;;4354940;33;20543;-93
2020/12/05 07:07:57;;;;;;;32.88;30.40;;;;;;;;;;4351339;32;20075;-95
2020/12/05 07:10:46;;;;;;;15.20;14.18;;;;;;;;;;4384458;32;20078;-93
2020/12/05 07:13:15;;;;;;;12.43;1.35;;;;;;;;;;4376958;32;20048;-94
2020/12/05 07:15:44;;;;;;;23.60;22.00;;;;;;;;;;4360735;32;20055;-93
2020/12/05 07:18:24;;;;;;;12.35;1.62;;;;;;;;;;4369238;32;20085;-93
2020/12/05 07:20:54;;;;;;;9.68;5.32;;;;;;;;;;4384851;32;20078;-96
2020/12/05 07:23:22;;;;;;;3.90;2.30;;;;;;;;;;4364395;32;20066;-93
2020/12/05 07:25:51;;;;;;;4.47;4.10;;;;;;;;;;4361453;32;20059;-92
2020/12/05 07:28:19;;;;;;;10.23;6.55;;;;;;;;;;4348397;32;20063;-95
2020/12/05 07:30:50;;;;;;;9.70;3.65;;;;;;;;;;4341244;32;20093;-93
2020/12/05 07:33:20;;;;;;;5.30;2.78;;;;;;;;;;4358764;32;20082;-93
2020/12/05 07:35:58;;;;;;;14.15;6.65;;;;;;;;;;4348150;32;20120;-94
2020/12/05 07:38:27;;;;;;;11.40;8.48;;;;;;;;;;4372348;32;20091;-93
2020/12/05 07:40:57;;;;;;;8.82;3.28;;;;;;;;;;4348391;32;20060;-92
2020/12/05 07:43:25;;;;;;;10.65;2.92;;;;;;;;;;4348319;32;20095;-93
2020/12/05 07:46:02;;;;;;;14.98;11.65;;;;;;;;;;4348929;32;20131;-95
2020/12/05 07:48:31;;;;;;;25.12;23.05;;;;;;;;;;4359344;32;20133;-95
2020/12/05 07:50:59;;;;;;;21.90;20.35;;;;;;;;;;4346590;32;20075;-94
2020/12/05 07:53:32;;;;;;;33.42;30.40;;;;;;;;;;4356955;32;20089;-94
2020/12/05 07:56:12;;;;;;;42.70;36.13;;;;;;;;;;4370879;32;20457;-94
2020/12/05 07:58:45;;;;;;;21.20;17.35;;;;;;;;;;4362104;32;20051;-94
2020/12/05 08:01:29;;;;;;;24.65;17.98;;;;;;;;;;4348780;32;20119;-93
2020/12/05 08:04:06;;;;;;;30.57;19.63;;;;;;;;;;4362693;32;20130;-92
2020/12/05 08:06:49;;;;;;;12.85;11.52;;;;;;;;;;4357711;32;20062;-94
2020/12/05 08:09:20;;;;;;;25.15;22.65;;;;;;;;;;4357861;32;20097;-93
2020/12/05 08:11:57;;;;;;;24.35;22.25;;;;;;;;;;4349906;32;21640;-94
2020/12/05 08:14:31;;;;;;;23.20;20.50;;;;;;;;;;4345556;32;20064;-92
2020/12/05 08:17:25;;;;;;;23.05;11.85;;;;;;;;;;4372839;32;20085;-94
2020/12/05 08:19:58;;;;;;;21.40;7.65;;;;;;;;;;4358922;32;20078;-95
2020/12/05 08:22:46;;;;;;;23.40;13.77;;;;;;;;;;4345476;32;20113;-94
2020/12/05 08:25:21;;;;;;;33.03;30.50;;;;;;;;;;4370900;32;20056;-92
2020/12/05 08:27:50;;;;;;;22.60;20.75;;;;;;;;;;4359317;32;20091;-94
2020/12/05 08:30:19;;;;;;;21.10;19.08;;;;;;;;;;4361901;32;20067;-92
2020/12/05 08:32:51;;;;;;;23.70;19.80;;;;;;;;;;4368393;32;20067;-93
2020/12/05 08:35:33;;;;;;;22.92;18.83;;;;;;;;;;4367554;32;20063;-94
2020/12/05 08:38:04;;;;;;;20.42;17.23;;;;;;;;;;4361997;32;20077;-93
2020/12/05 08:40:32;;;;;;;17.42;15.27;;;;;;;;;;4347547;32;20147;-93
2020/12/05 08:43:00;;;;;;;15.02;12.73;;;;;;;;;;4367146;32;20065;-92
2020/12/05 08:45:29;;;;;;;19.12;17.42;;;;;;;;;;4357204;32;20090;-92
2020/12/05 08:47:57;;;;;;;11.00;2.50;;;;;;;;;;4371161;32;20109;-92
2020/12/05 08:50:27;;;;;;;4.40;1.20;;;;;;;;;;4354401;32;20113;-91
2020/12/05 08:52:59;;;;;;;7.18;1.73;;;;;;;;;;4364673;32;20122;-90
2020/12/05 08:55:29;;;;;;;39.28;36.00;;;;;;;;;;4368353;32;20113;-89
2020/12/05 08:58:01;;;;;;;14.27;6.43;;;;;;;;;;4358812;32;20117;-91
2020/12/05 09:00:31;;;;;;;15.25;7.85;;;;;;;;;;4366197;32;20058;-91
2020/12/05 09:02:59;;;;;;;15.02;11.80;;;;;;;;;;4355859;32;20051;-89
2020/12/05 09:05:27;;;;;;;11.73;10.15;;;;;;;;;;4368008;32;20101;-91
2020/12/05 09:07:57;;;;;;;5.40;1.95;;;;;;;;;;4368395;32;20071;-91
2020/12/05 09:10:29;;;;;;;8.55;1.65;;;;;;;;;;4357496;32;20510;-90
2020/12/05 09:13:07;;;;;;;9.43;2.42;;;;;;;;;;4355422;32;20111;-90
2020/12/05 09:15:35;;;;;;;12.00;2.55;;;;;;;;;;4371172;32;20094;-92
2020/12/05 09:18:04;;;;;;;6.72;1.52;;;;;;;;;;4368269;32;20113;-92
2020/12/05 09:20:32;;;;;;;4.65;2.60;;;;;;;;;;4371666;32;20111;-91
2020/12/05 09:23:01;;;;;;;5.62;2.47;;;;;;;;;;4354913;32;20117;-90
2020/12/05 09:25:30;;;;;;;8.30;3.72;;;;;;;;;;4368642;32;20097;-93
2020/12/05 09:28:02;;;;;;;5.82;2.90;;;;;;;;;;4367576;32;20433;-91
2020/12/05 09:30:30;;;;;;;4.97;4.00;;;;;;;;;;4370517;32;20787;-90
2020/12/05 09:32:59;;;;;;;6.30;3.97;;;;;;;;;;4367494;32;20055;-91
2020/12/05 09:35:27;;;;;;;6.60;3.33;;;;;;;;;;4367869;32;20140;-91
2020/12/05 09:37:58;;;;;;;7.10;3.75;;;;;;;;;;4357165;32;20817;-89
2020/12/05 09:40:26;;;;;;;8.88;3.70;;;;;;;;;;4369398;32;20755;-89
2020/12/05 09:42:54;;;;;;;9.95;2.12;;;;;;;;;;4366645;32;20580;-89
2020/12/05 09:45:23;;;;;;;4.65;1.48;;;17.70;99.90;;;;;;4354951;32;20060;-89
2020/12/05 09:47:51;;;;;;;9.85;5.95;;;;;;;;;;4347107;32;20452;-90
2020/12/05 09:50:20;;;;;;;35.83;34.00;;;19.20;99.90;;;;;;4368645;32;20039;-90
2020/12/05 09:52:49;;;;;;;26.58;24.80;;;19.90;99.90;;;;;;4367448;32;20051;-90
2020/12/05 09:55:17;;;;;;;27.37;25.48;;;;;;;;;;4357070;32;20056;-91
2020/12/05 09:57:45;;;;;;;8.13;7.35;;;20.80;99.90;;;;;;4357913;32;20853;-92
2020/12/05 10:00:14;;;;;;;9.95;3.25;;;20.70;99.90;;;;;;4344055;32;20474;-91
2020/12/05 10:02:43;;;;;;;11.18;4.55;;;19.90;99.90;;;;;;4355058;32;20444;-91
2020/12/05 10:05:11;;;;;;;11.55;2.17;;;19.50;99.90;;;;;;4366752;32;20101;-91
2020/12/05 10:07:41;;;;;;;6.72;2.35;;;19.50;99.90;;;;;;4342145;32;20606;-91
2020/12/05 10:10:10;;;;;;;6.18;3.15;;;18.40;99.90;;;;;;4370283;32;20070;-91
2020/12/05 10:12:44;;;;;;;52.75;49.38;;;18.30;99.90;;;;;;4360050;32;20106;-90
2020/12/05 10:15:14;;;;;;;4.68;2.03;;;19.90;99.90;;;;;;4347448;32;20055;-91
2020/12/05 10:17:43;;;;;;;21.48;20.23;;;20.10;99.90;;;;;;4352056;33;20071;-90
2020/12/05 10:20:11;;;;;;;8.75;8.15;;;21.00;99.90;;;;;;4343347;32;20071;-91
2020/12/05 10:22:39;;;;;;;3.37;2.20;;;19.40;99.90;;;;;;4364653;32;20075;-91
2020/12/05 10:25:07;;;;;;;15.30;2.85;;;18.40;99.90;;;;;;4354371;32;20110;-88
2020/12/05 10:27:35;;;;;;;2.62;1.98;;;18.10;99.90;;;;;;4352480;32;20187;-89
2020/12/05 10:30:03;;;;;;;8.10;7.47;;;17.70;99.90;;;;;;4336801;33;20071;-89
2020/12/05 10:32:31;;;;;;;2.80;2.40;;;18.40;99.90;;;;;;4347254;32;20052;-91
2020/12/05 10:34:59;;;;;;;4.72;2.92;;;18.60;99.90;;;;;;4353681;32;20074;-89
2020/12/05 10:37:27;;;;;;;7.95;2.83;;;18.40;99.90;;;;;;4340322;33;20459;-89
2020/12/05 10:39:55;;;;;;;9.27;8.68;;;18.50;99.90;;;;;;4344220;32;20163;-88
2020/12/05 10:42:24;;;;;;;5.25;3.45;;;19.40;99.90;;;;;;4350648;32;20098;-90
2020/12/05 10:44:52;;;;;;;23.42;21.73;;;19.40;99.90;;;;;;4356463;32;20067;-90
2020/12/05 10:47:20;;;;;;;33.05;31.35;;;;;;;;;;4351094;32;20476;-90
2020/12/05 10:49:48;;;;;;;65.03;61.78;;;22.50;99.90;;;;;;4352492;32;20051;-90
2020/12/05 10:52:16;;;;;;;10.00;9.18;;;22.90;99.90;;;;;;4348159;32;20116;-89
2020/12/05 10:54:44;;;;;;;52.53;49.85;;;22.40;99.90;;;;;;4354499;32;20096;-89
2020/12/05 10:57:12;;;;;;;33.30;31.17;;;22.60;99.00;;;;;;4363516;32;20064;-89
2020/12/05 10:59:40;;;;;;;43.22;41.03;;;24.10;98.30;;;;;;4336323;33;20099;-91
2020/12/05 11:02:09;;;;;;;32.38;30.58;;;24.00;96.60;;;;;;4343606;32;20082;-89
2020/12/05 11:04:36;;;;;;;42.72;40.50;;;23.70;95.90;;;;;;4362978;32;20154;-91
2020/12/05 11:07:05;;;;;;;29.27;27.45;;;23.50;95.50;;;;;;4352211;32;20063;-90
2020/12/05 11:09:33;;;;;;;15.85;14.73;;;24.10;95.80;;;;;;4356533;32;20436;-90
2020/12/05 11:12:01;;;;;;;2.12;1.77;;;23.20;95.10;;;;;;4359569;32;20067;-90
2020/12/05 11:14:29;;;;;;;10.25;9.35;;;21.70;97.70;;;;;;4365533;32;20133;-89
2020/12/05 11:16:57;;;;;;;20.50;19.42;;;22.40;97.80;;;;;;4361579;32;20078;-90
2020/12/05 11:19:25;;;;;;;39.25;37.17;;;21.60;98.70;;;;;;4366197;32;20103;-90
2020/12/05 11:21:53;;;;;;;18.45;16.62;;;23.00;98.70;;;;;;4365490;32;20101;-89
2020/12/05 11:24:21;;;;;;;10.85;10.05;;;23.40;99.90;;;;;;4364050;32;20048;-90
2020/12/05 11:26:48;;;;;;;20.70;19.70;;;23.60;98.40;;;;;;4340016;32;20510;-91
2020/12/05 11:29:17;;;;;;;3.58;1.85;;;24.50;96.70;;;;;;4356443;32;20077;-89
2020/12/05 11:31:48;;;;;;;3.22;1.10;;;;;;;;;;4365763;32;20152;-89
2020/12/05 11:34:17;;;;;;;6.30;1.12;;;;;;;;;;4369970;32;20384;-89
2020/12/05 11:36:45;;;;;;;6.47;1.05;;;18.30;99.90;;;;;;4362983;32;20075;-89
2020/12/05 11:39:13;;;;;;;1.58;0.95;;;17.80;99.90;;;;;;4354896;32;20077;-88
2020/12/05 11:41:42;;;;;;;3.72;1.67;;;17.80;99.90;;;;;;4354520;32;20064;-88
2020/12/05 11:44:10;;;;;;;2.17;1.20;;;17.70;99.90;;;;;;4345649;32;20115;-88
2020/12/05 11:46:37;;;;;;;4.55;4.15;;;17.90;99.90;;;;;;4370119;32;20047;-89
2020/12/05 11:49:05;;;;;;;5.28;1.83;;;18.70;99.90;;;;;;4355830;32;20098;-88
2020/12/05 11:51:33;;;;;;;13.10;12.35;;;18.90;99.90;;;;;;4372921;32;20055;-86
2020/12/05 11:54:01;;;;;;;20.30;11.95;;;21.00;99.90;;;;;;4352732;32;20067;-86
2020/12/05 11:56:30;;;;;;;2.58;1.58;;;21.90;99.90;;;;;;4371086;32;20043;-89
2020/12/05 11:58:58;;;;;;;3.67;2.30;;;20.90;99.90;;;;;;4350714;32;20059;-91
2020/12/05 12:01:25;;;;;;;2.97;2.35;;;20.50;99.90;;;;;;4367691;32;20470;-89
2020/12/05 12:03:54;;;;;;;4.37;3.97;;;20.10;99.90;;;;;;4359837;32;20067;-89
2020/12/05 12:06:21;;;;;;;5.18;4.78;;;21.40;99.90;;;;;;4370186;32;20055;-88
2020/12/05 12:08:49;;;;;;;1.70;1.60;;;21.20;99.90;;;;;;4360369;32;20058;-90
2020/12/05 12:11:20;;;;;;;4.30;2.03;;;20.80;99.90;;;;;;4366527;32;20082;-89
2020/12/05 12:13:48;;;;;;;5.32;1.73;;;20.10;99.90;;;;;;4358116;32;20059;-89
2020/12/05 12:16:16;;;;;;;1.00;1.00;;;19.50;99.90;;;;;;4370887;32;20113;-89
2020/12/05 12:18:45;;;;;;;1.83;1.58;;;17.90;99.90;;;;;;4346932;32;20074;-88
2020/12/05 12:21:13;;;;;;;2.97;2.58;;;17.80;99.90;;;;;;4348307;32;20055;-88
2020/12/05 12:23:40;;;;;;;3.17;1.70;;;18.00;99.90;;;;;;4356958;32;20404;-90
2020/12/05 12:26:09;;;;;;;6.80;6.30;;;18.80;99.90;;;;;;4350458;32;20098;-88
2020/12/05 12:28:36;;;;;;;3.95;1.58;;;19.00;99.90;;;;;;4361319;32;20297;-89
2020/12/05 12:31:04;;;;;;;4.62;1.12;;;18.60;99.90;;;;;;4348613;32;20067;-89
2020/12/05 12:33:32;;;;;;;2.90;1.00;;;18.70;99.90;;;;;;4348749;32;20077;-90
2020/12/05 12:36:00;;;;;;;0.75;0.70;;;18.60;99.90;;;;;;4344769;32;20071;-90
2020/12/05 12:38:29;;;;;;;3.20;1.20;;;18.30;99.90;;;;;;4357956;32;20138;-89
2020/12/05 12:40:57;;;;;;;2.00;1.10;;;18.40;99.90;;;;;;4370271;32;20051;-89
2020/12/05 12:43:25;;;;;;;1.65;0.98;;;19.00;99.90;;;;;;4358954;32;20294;-89
2020/12/05 12:45:53;;;;;;;1.58;1.45;;;19.00;99.90;;;;;;4357911;32;20059;-89
2020/12/05 12:50:52;;;;;;;3.70;1.45;;;19.20;99.90;;;;;;4365697;32;20184;-89
2020/12/05 12:53:19;;;;;;;3.15;0.70;;;19.20;99.90;;;;;;4363930;32;20039;-87
2020/12/05 12:55:49;;;;;;;4.78;1.02;;;19.00;99.90;;;;;;4354723;32;20489;-89
2020/12/05 13:00:46;;;;;;;2.03;1.10;;;19.10;99.90;;;;;;4368523;32;20105;-88
2020/12/05 13:03:15;;;;;;;2.75;1.58;;;19.10;99.90;;;;;;4350335;32;20055;-87
2020/12/05 13:05:42;;;;;;;3.78;1.33;;;19.30;99.90;;;;;;4368586;32;20047;-88
2020/12/05 13:08:10;;;;;;;5.82;1.00;;;19.60;99.90;;;;;;4368118;32;20051;-88
2020/12/05 13:10:38;;;;;;;1.55;0.65;;;19.30;99.90;;;;;;4354730;32;20091;-90
2020/12/05 13:13:06;;;;;;;2.90;0.70;;;18.90;99.90;;;;;;4368863;32;20086;-89
2020/12/05 13:15:34;;;;;;;2.85;1.30;;;18.80;99.90;;;;;;4348428;32;20056;-90
2020/12/05 13:18:02;;;;;;;2.03;1.00;;;19.30;99.90;;;;;;4356888;32;20111;-90
2020/12/05 13:20:30;;;;;;;12.50;1.10;;;18.80;99.90;;;;;;4357690;32;20052;-88
2020/12/05 13:22:58;;;;;;;4.72;2.05;;;18.20;99.90;;;;;;4353462;32;20060;-89
2020/12/05 13:25:26;;;;;;;4.32;1.35;;;18.30;99.90;;;;;;4355781;32;20127;-89
2020/12/05 13:27:54;;;;;;;5.00;1.40;;;18.20;99.90;;;;;;4366746;32;20050;-88
2020/12/05 13:30:22;;;;;;;7.90;2.20;;;18.20;99.90;;;;;;4364525;32;20090;-88
2020/12/05 13:32:50;;;;;;;5.45;0.95;;;18.40;99.90;;;;;;4364329;32;20039;-89
2020/12/05 13:35:18;;;;;;;1.87;1.25;;;18.80;99.90;;;;;;4339084;32;20052;-89
2020/12/05 13:37:46;;;;;;;3.58;0.88;;;19.10;99.90;;;;;;4352869;32;20130;-89
2020/12/05 13:40:15;;;;;;;6.15;1.20;;;18.20;99.90;;;;;;4354004;32;20110;-88
2020/12/05 13:42:42;;;;;;;6.93;2.65;;;17.80;99.90;;;;;;4353734;32;20055;-92
2020/12/05 13:45:11;;;;;;;4.85;1.62;;;;;;;;;;4366724;32;20457;-89
2020/12/05 13:47:39;;;;;;;5.97;2.80;;;17.80;99.90;;;;;;4354227;32;20091;-89
2020/12/05 13:50:07;;;;;;;2.12;1.45;;;17.20;99.90;;;;;;4364544;32;20064;-89
2020/12/05 13:52:35;;;;;;;2.83;1.45;;;17.40;99.90;;;;;;4363121;32;20456;-91
2020/12/05 13:55:04;;;;;;;2.75;1.30;;;17.60;99.90;;;;;;4369734;32;20574;-89
2020/12/05 13:57:31;;;;;;;3.28;1.85;;;17.20;99.90;;;;;;4368534;32;20075;-89
2020/12/05 13:59:59;;;;;;;6.72;1.77;;;;;;;;;;4351580;32;20121;-90
2020/12/05 14:02:28;;;;;;;3.92;2.72;;;17.10;99.90;;;;;;4368134;32;20102;-89
2020/12/05 14:04:56;;;;;;;6.20;4.50;;;17.00;99.90;;;;;;4364774;32;20534;-91
2020/12/05 14:07:23;;;;;;;6.75;2.00;;;17.20;99.90;;;;;;4354056;32;20118;-91
2020/12/05 14:09:52;;;;;;;5.95;1.75;;;17.60;99.90;;;;;;4349145;32;20102;-92
2020/12/05 14:12:20;;;;;;;5.80;1.12;;;17.30;99.90;;;;;;4345649;32;20056;-91
2020/12/05 14:14:49;;;;;;;7.18;6.62;;;17.30;99.90;;;;;;4350920;32;20154;-90
2020/12/05 14:17:17;;;;;;;6.78;6.45;;;17.20;99.90;;;;;;4351699;32;20558;-90
2020/12/05 14:19:45;;;;;;;1.60;0.95;;;17.40;99.90;;;;;;4356197;32;20078;-91